sensor_id;sensor_type;location;lat;lon;timestamp;P1;durP1;ratioP1;P2;durP2;ratioP2
3189;SDS011;1606;51.946;10.558;2022-11-20T00:01:21;9.00;;;3.80;;
3189;SDS011;1606;51.946;10.558;2022-11-20T00:03:50;12.90;;;4.83;;
3189;SDS011;1606;51.946;10.558;2022-11-20T00:06:20;8.87;;;4.20;;
3189;SDS011;1606;51.946;10.558;2022-11-20T00:08:50;8.87;;;4.17;;
3189;SDS011;1606;51.946;10.558;2022-11-20T00:11:21;9.80;;;4.30;;
3189;SDS011;1606;51.946;10.558;2022-11-20T00:13:51;9.50;;;4.50;;
3189;SDS011;1606;51.946;10.558;2022-11-20T00:16:20;8.90;;;4.30;;
3189;SDS011;1606;51.946;10.558;2022-11-20T00:18:49;7.63;;;3.77;;
3189;SDS011;1606;51.946;10.558;2022-11-20T00:21:18;9.30;;;4.00;;
3189;SDS011;1606;51.946;10.558;2022-11-20T00:23:48;8.17;;;3.90;;
3189;SDS011;1606;51.946;10.558;2022-11-20T00:26:21;9.70;;;3.90;;
3189;SDS011;1606;51.946;10.558;2022-11-20T00:28:51;8.37;;;4.00;;
3189;SDS011;1606;51.946;10.558;2022-11-20T00:31:20;9.63;;;4.80;;
3189;SDS011;1606;51.946;10.558;2022-11-20T00:33:48;9.97;;;4.47;;
3189;SDS011;1606;51.946;10.558;2022-11-20T00:36:17;9.30;;;4.43;;
3189;SDS011;1606;51.946;10.558;2022-11-20T00:38:46;8.37;;;3.90;;
3189;SDS011;1606;51.946;10.558;2022-11-20T00:41:19;9.60;;;4.27;;
3189;SDS011;1606;51.946;10.558;2022-11-20T00:43:47;8.93;;;4.57;;
3189;SDS011;1606;51.946;10.558;2022-11-20T00:46:17;8.53;;;3.97;;
3189;SDS011;1606;51.946;10.558;2022-11-20T00:48:45;9.63;;;4.50;;
3189;SDS011;1606;51.946;10.558;2022-11-20T00:51:14;8.13;;;4.20;;
3189;SDS011;1606;51.946;10.558;2022-11-20T00:53:44;11.20;;;5.33;;
3189;SDS011;1606;51.946;10.558;2022-11-20T00:56:12;9.20;;;4.77;;
3189;SDS011;1606;51.946;10.558;2022-11-20T00:58:44;9.90;;;5.23;;
3189;SDS011;1606;51.946;10.558;2022-11-20T01:01:13;10.13;;;5.17;;
3189;SDS011;1606;51.946;10.558;2022-11-20T01:03:43;8.43;;;4.13;;
3189;SDS011;1606;51.946;10.558;2022-11-20T01:06:12;9.40;;;4.17;;
3189;SDS011;1606;51.946;10.558;2022-11-20T01:08:42;8.07;;;3.80;;
3189;SDS011;1606;51.946;10.558;2022-11-20T01:11:11;7.67;;;3.80;;
3189;SDS011;1606;51.946;10.558;2022-11-20T01:13:40;8.57;;;3.83;;
3189;SDS011;1606;51.946;10.558;2022-11-20T01:16:10;8.97;;;4.13;;
3189;SDS011;1606;51.946;10.558;2022-11-20T01:18:40;8.80;;;4.20;;
3189;SDS011;1606;51.946;10.558;2022-11-20T01:21:10;9.83;;;4.30;;
3189;SDS011;1606;51.946;10.558;2022-11-20T01:23:39;8.90;;;4.83;;
3189;SDS011;1606;51.946;10.558;2022-11-20T01:26:09;8.17;;;4.67;;
3189;SDS011;1606;51.946;10.558;2022-11-20T01:28:39;11.43;;;4.33;;
3189;SDS011;1606;51.946;10.558;2022-11-20T01:31:12;8.87;;;4.47;;
3189;SDS011;1606;51.946;10.558;2022-11-20T01:33:42;10.37;;;4.47;;
3189;SDS011;1606;51.946;10.558;2022-11-20T01:36:11;9.30;;;4.90;;
3189;SDS011;1606;51.946;10.558;2022-11-20T01:38:40;9.57;;;4.27;;
3189;SDS011;1606;51.946;10.558;2022-11-20T01:41:09;7.77;;;4.10;;
3189;SDS011;1606;51.946;10.558;2022-11-20T01:43:58;9.50;;;4.40;;
3189;SDS011;1606;51.946;10.558;2022-11-20T01:46:26;9.10;;;4.07;;
3189;SDS011;1606;51.946;10.558;2022-11-20T01:48:56;10.17;;;4.10;;
3189;SDS011;1606;51.946;10.558;2022-11-20T01:51:28;9.07;;;4.70;;
3189;SDS011;1606;51.946;10.558;2022-11-20T01:53:59;11.00;;;4.50;;
3189;SDS011;1606;51.946;10.558;2022-11-20T01:56:30;8.37;;;3.93;;
3189;SDS011;1606;51.946;10.558;2022-11-20T01:59:04;8.67;;;4.13;;
3189;SDS011;1606;51.946;10.558;2022-11-20T02:01:36;10.47;;;4.60;;
3189;SDS011;1606;51.946;10.558;2022-11-20T02:04:05;10.27;;;4.40;;
3189;SDS011;1606;51.946;10.558;2022-11-20T02:06:35;10.77;;;4.67;;
3189;SDS011;1606;51.946;10.558;2022-11-20T02:09:05;10.07;;;5.00;;
3189;SDS011;1606;51.946;10.558;2022-11-20T02:11:33;10.93;;;4.00;;
3189;SDS011;1606;51.946;10.558;2022-11-20T02:14:01;8.37;;;4.50;;
3189;SDS011;1606;51.946;10.558;2022-11-20T02:16:29;9.80;;;4.23;;
3189;SDS011;1606;51.946;10.558;2022-11-20T02:19:02;8.27;;;4.17;;
3189;SDS011;1606;51.946;10.558;2022-11-20T02:21:35;9.30;;;4.13;;
3189;SDS011;1606;51.946;10.558;2022-11-20T02:24:09;9.33;;;4.00;;
3189;SDS011;1606;51.946;10.558;2022-11-20T02:26:40;9.50;;;4.60;;
3189;SDS011;1606;51.946;10.558;2022-11-20T02:29:11;10.53;;;4.83;;
3189;SDS011;1606;51.946;10.558;2022-11-20T02:31:41;9.00;;;4.20;;
3189;SDS011;1606;51.946;10.558;2022-11-20T02:34:10;8.00;;;4.00;;
3189;SDS011;1606;51.946;10.558;2022-11-20T02:36:39;9.50;;;4.20;;
3189;SDS011;1606;51.946;10.558;2022-11-20T02:39:10;9.47;;;4.03;;
3189;SDS011;1606;51.946;10.558;2022-11-20T02:41:39;7.97;;;4.00;;
3189;SDS011;1606;51.946;10.558;2022-11-20T02:44:08;10.27;;;5.23;;
3189;SDS011;1606;51.946;10.558;2022-11-20T02:46:36;9.80;;;4.27;;
3189;SDS011;1606;51.946;10.558;2022-11-20T02:49:04;9.90;;;4.10;;
3189;SDS011;1606;51.946;10.558;2022-11-20T02:51:32;9.07;;;4.53;;
3189;SDS011;1606;51.946;10.558;2022-11-20T02:54:00;9.83;;;4.30;;
3189;SDS011;1606;51.946;10.558;2022-11-20T02:56:29;10.43;;;5.57;;
3189;SDS011;1606;51.946;10.558;2022-11-20T02:58:58;8.53;;;3.67;;
3189;SDS011;1606;51.946;10.558;2022-11-20T03:01:25;9.00;;;4.90;;
3189;SDS011;1606;51.946;10.558;2022-11-20T03:03:53;8.87;;;4.80;;
3189;SDS011;1606;51.946;10.558;2022-11-20T03:06:22;8.30;;;4.30;;
3189;SDS011;1606;51.946;10.558;2022-11-20T03:08:50;11.23;;;4.80;;
3189;SDS011;1606;51.946;10.558;2022-11-20T03:11:17;10.03;;;4.50;;
3189;SDS011;1606;51.946;10.558;2022-11-20T03:13:47;12.00;;;5.00;;
3189;SDS011;1606;51.946;10.558;2022-11-20T03:16:15;8.97;;;4.27;;
3189;SDS011;1606;51.946;10.558;2022-11-20T03:18:45;8.90;;;4.23;;
3189;SDS011;1606;51.946;10.558;2022-11-20T03:21:13;9.33;;;4.07;;
3189;SDS011;1606;51.946;10.558;2022-11-20T03:23:42;8.43;;;3.90;;
3189;SDS011;1606;51.946;10.558;2022-11-20T03:26:11;8.43;;;4.27;;
3189;SDS011;1606;51.946;10.558;2022-11-20T03:28:41;9.37;;;4.10;;
3189;SDS011;1606;51.946;10.558;2022-11-20T03:31:14;10.73;;;5.17;;
3189;SDS011;1606;51.946;10.558;2022-11-20T03:33:43;7.73;;;3.53;;
3189;SDS011;1606;51.946;10.558;2022-11-20T03:36:12;8.43;;;3.70;;
3189;SDS011;1606;51.946;10.558;2022-11-20T03:38:41;8.63;;;4.50;;
3189;SDS011;1606;51.946;10.558;2022-11-20T03:41:09;7.70;;;3.60;;
3189;SDS011;1606;51.946;10.558;2022-11-20T03:43:38;8.60;;;3.83;;
3189;SDS011;1606;51.946;10.558;2022-11-20T03:46:07;10.23;;;4.10;;
3189;SDS011;1606;51.946;10.558;2022-11-20T03:48:36;8.97;;;4.20;;
3189;SDS011;1606;51.946;10.558;2022-11-20T03:51:08;8.70;;;4.03;;
3189;SDS011;1606;51.946;10.558;2022-11-20T03:53:37;7.80;;;3.60;;
3189;SDS011;1606;51.946;10.558;2022-11-20T03:56:05;8.10;;;4.00;;
3189;SDS011;1606;51.946;10.558;2022-11-20T03:58:34;7.70;;;3.60;;
3189;SDS011;1606;51.946;10.558;2022-11-20T04:01:06;9.27;;;4.13;;
3189;SDS011;1606;51.946;10.558;2022-11-20T04:03:35;9.17;;;3.40;;
3189;SDS011;1606;51.946;10.558;2022-11-20T04:06:05;9.83;;;4.07;;
3189;SDS011;1606;51.946;10.558;2022-11-20T04:08:35;8.20;;;3.60;;
3189;SDS011;1606;51.946;10.558;2022-11-20T04:11:09;8.77;;;3.97;;
3189;SDS011;1606;51.946;10.558;2022-11-20T04:13:38;14.30;;;4.30;;
3189;SDS011;1606;51.946;10.558;2022-11-20T04:16:06;7.60;;;3.17;;
3189;SDS011;1606;51.946;10.558;2022-11-20T04:18:35;7.40;;;3.40;;
3189;SDS011;1606;51.946;10.558;2022-11-20T04:21:04;8.10;;;3.80;;
3189;SDS011;1606;51.946;10.558;2022-11-20T04:23:33;9.90;;;4.63;;
3189;SDS011;1606;51.946;10.558;2022-11-20T04:26:01;8.30;;;4.13;;
3189;SDS011;1606;51.946;10.558;2022-11-20T04:28:30;8.47;;;3.50;;
3189;SDS011;1606;51.946;10.558;2022-11-20T04:31:01;9.53;;;5.00;;
3189;SDS011;1606;51.946;10.558;2022-11-20T04:33:30;9.50;;;4.07;;
3189;SDS011;1606;51.946;10.558;2022-11-20T04:36:01;8.23;;;3.60;;
3189;SDS011;1606;51.946;10.558;2022-11-20T04:38:30;8.13;;;3.53;;
3189;SDS011;1606;51.946;10.558;2022-11-20T04:40:58;7.00;;;3.63;;
3189;SDS011;1606;51.946;10.558;2022-11-20T04:43:28;7.10;;;2.93;;
3189;SDS011;1606;51.946;10.558;2022-11-20T04:45:56;7.60;;;3.33;;
3189;SDS011;1606;51.946;10.558;2022-11-20T04:48:25;10.50;;;3.70;;
3189;SDS011;1606;51.946;10.558;2022-11-20T04:50:54;7.93;;;4.00;;
3189;SDS011;1606;51.946;10.558;2022-11-20T04:53:24;8.20;;;3.50;;
3189;SDS011;1606;51.946;10.558;2022-11-20T04:55:52;7.00;;;3.00;;
3189;SDS011;1606;51.946;10.558;2022-11-20T04:58:26;9.07;;;5.80;;
3189;SDS011;1606;51.946;10.558;2022-11-20T05:01:00;7.17;;;3.27;;
3189;SDS011;1606;51.946;10.558;2022-11-20T05:03:29;8.40;;;3.07;;
3189;SDS011;1606;51.946;10.558;2022-11-20T05:05:59;7.60;;;3.20;;
3189;SDS011;1606;51.946;10.558;2022-11-20T05:08:29;8.43;;;3.47;;
3189;SDS011;1606;51.946;10.558;2022-11-20T05:11:01;7.60;;;3.40;;
3189;SDS011;1606;51.946;10.558;2022-11-20T05:13:30;8.13;;;3.60;;
3189;SDS011;1606;51.946;10.558;2022-11-20T05:16:00;7.07;;;2.97;;
3189;SDS011;1606;51.946;10.558;2022-11-20T05:18:29;7.93;;;3.40;;
3189;SDS011;1606;51.946;10.558;2022-11-20T05:20:57;7.80;;;3.73;;
3189;SDS011;1606;51.946;10.558;2022-11-20T05:23:25;8.10;;;3.20;;
3189;SDS011;1606;51.946;10.558;2022-11-20T05:25:57;8.17;;;3.40;;
3189;SDS011;1606;51.946;10.558;2022-11-20T05:28:26;8.37;;;3.70;;
3189;SDS011;1606;51.946;10.558;2022-11-20T05:30:55;8.03;;;3.67;;
3189;SDS011;1606;51.946;10.558;2022-11-20T05:33:23;8.20;;;3.50;;
3189;SDS011;1606;51.946;10.558;2022-11-20T05:35:51;7.80;;;3.10;;
3189;SDS011;1606;51.946;10.558;2022-11-20T05:38:18;8.90;;;3.50;;
3189;SDS011;1606;51.946;10.558;2022-11-20T05:40:46;7.33;;;2.90;;
3189;SDS011;1606;51.946;10.558;2022-11-20T05:43:15;7.83;;;3.23;;
3189;SDS011;1606;51.946;10.558;2022-11-20T05:45:51;7.33;;;3.73;;
3189;SDS011;1606;51.946;10.558;2022-11-20T05:48:19;8.47;;;3.07;;
3189;SDS011;1606;51.946;10.558;2022-11-20T05:50:47;7.93;;;3.27;;
3189;SDS011;1606;51.946;10.558;2022-11-20T05:53:15;8.63;;;3.47;;
3189;SDS011;1606;51.946;10.558;2022-11-20T05:55:43;7.27;;;2.63;;
3189;SDS011;1606;51.946;10.558;2022-11-20T05:58:10;8.97;;;4.03;;
3189;SDS011;1606;51.946;10.558;2022-11-20T06:00:40;7.90;;;3.50;;
3189;SDS011;1606;51.946;10.558;2022-11-20T06:03:07;9.10;;;3.60;;
3189;SDS011;1606;51.946;10.558;2022-11-20T06:05:35;6.90;;;2.87;;
3189;SDS011;1606;51.946;10.558;2022-11-20T06:08:03;8.40;;;3.43;;
3189;SDS011;1606;51.946;10.558;2022-11-20T06:10:31;8.63;;;4.00;;
3189;SDS011;1606;51.946;10.558;2022-11-20T06:12:59;6.97;;;2.73;;
3189;SDS011;1606;51.946;10.558;2022-11-20T06:15:27;7.53;;;2.90;;
3189;SDS011;1606;51.946;10.558;2022-11-20T06:17:56;7.47;;;3.27;;
3189;SDS011;1606;51.946;10.558;2022-11-20T06:20:25;7.70;;;2.93;;
3189;SDS011;1606;51.946;10.558;2022-11-20T06:22:52;6.83;;;2.73;;
3189;SDS011;1606;51.946;10.558;2022-11-20T06:25:20;7.47;;;3.00;;
3189;SDS011;1606;51.946;10.558;2022-11-20T06:27:48;7.10;;;3.17;;
3189;SDS011;1606;51.946;10.558;2022-11-20T06:30:16;6.50;;;2.80;;
3189;SDS011;1606;51.946;10.558;2022-11-20T06:32:44;9.67;;;4.40;;
3189;SDS011;1606;51.946;10.558;2022-11-20T06:35:13;8.07;;;2.70;;
3189;SDS011;1606;51.946;10.558;2022-11-20T06:37:41;7.63;;;3.00;;
3189;SDS011;1606;51.946;10.558;2022-11-20T06:40:10;6.47;;;2.77;;
3189;SDS011;1606;51.946;10.558;2022-11-20T06:42:38;7.73;;;2.90;;
3189;SDS011;1606;51.946;10.558;2022-11-20T06:45:07;9.10;;;2.83;;
3189;SDS011;1606;51.946;10.558;2022-11-20T06:47:35;7.03;;;2.87;;
3189;SDS011;1606;51.946;10.558;2022-11-20T06:50:03;7.07;;;3.20;;
3189;SDS011;1606;51.946;10.558;2022-11-20T06:52:33;6.40;;;2.80;;
3189;SDS011;1606;51.946;10.558;2022-11-20T06:55:08;7.03;;;2.60;;
3189;SDS011;1606;51.946;10.558;2022-11-20T06:57:36;7.53;;;2.60;;
3189;SDS011;1606;51.946;10.558;2022-11-20T07:00:04;6.50;;;2.40;;
3189;SDS011;1606;51.946;10.558;2022-11-20T07:02:33;7.30;;;3.07;;
3189;SDS011;1606;51.946;10.558;2022-11-20T07:05:01;7.63;;;2.70;;
3189;SDS011;1606;51.946;10.558;2022-11-20T07:07:29;7.57;;;3.20;;
3189;SDS011;1606;51.946;10.558;2022-11-20T07:09:58;6.20;;;2.70;;
3189;SDS011;1606;51.946;10.558;2022-11-20T07:12:26;7.27;;;2.60;;
3189;SDS011;1606;51.946;10.558;2022-11-20T07:14:53;6.40;;;2.63;;
3189;SDS011;1606;51.946;10.558;2022-11-20T07:17:21;6.70;;;2.73;;
3189;SDS011;1606;51.946;10.558;2022-11-20T07:19:49;6.70;;;2.93;;
3189;SDS011;1606;51.946;10.558;2022-11-20T07:22:17;6.80;;;2.70;;
3189;SDS011;1606;51.946;10.558;2022-11-20T07:24:48;6.43;;;2.83;;
3189;SDS011;1606;51.946;10.558;2022-11-20T07:27:17;8.23;;;2.87;;
3189;SDS011;1606;51.946;10.558;2022-11-20T07:29:45;6.00;;;2.57;;
3189;SDS011;1606;51.946;10.558;2022-11-20T07:32:12;6.63;;;2.60;;
3189;SDS011;1606;51.946;10.558;2022-11-20T07:34:40;7.80;;;3.63;;
3189;SDS011;1606;51.946;10.558;2022-11-20T07:37:09;8.10;;;3.33;;
3189;SDS011;1606;51.946;10.558;2022-11-20T07:39:36;7.17;;;2.80;;
3189;SDS011;1606;51.946;10.558;2022-11-20T07:42:05;6.33;;;2.13;;
3189;SDS011;1606;51.946;10.558;2022-11-20T07:44:35;6.87;;;2.57;;
3189;SDS011;1606;51.946;10.558;2022-11-20T07:47:02;6.93;;;2.80;;
3189;SDS011;1606;51.946;10.558;2022-11-20T07:49:31;8.23;;;3.00;;
3189;SDS011;1606;51.946;10.558;2022-11-20T07:51:59;10.87;;;3.37;;
3189;SDS011;1606;51.946;10.558;2022-11-20T07:54:30;8.63;;;3.00;;
3189;SDS011;1606;51.946;10.558;2022-11-20T07:56:58;5.80;;;2.17;;
3189;SDS011;1606;51.946;10.558;2022-11-20T07:59:26;7.30;;;2.40;;
3189;SDS011;1606;51.946;10.558;2022-11-20T08:01:55;7.00;;;2.97;;
3189;SDS011;1606;51.946;10.558;2022-11-20T08:04:23;6.20;;;2.53;;
3189;SDS011;1606;51.946;10.558;2022-11-20T08:06:51;6.50;;;2.40;;
3189;SDS011;1606;51.946;10.558;2022-11-20T08:09:19;6.70;;;2.40;;
3189;SDS011;1606;51.946;10.558;2022-11-20T08:11:47;7.40;;;2.33;;
3189;SDS011;1606;51.946;10.558;2022-11-20T08:14:33;6.40;;;2.30;;
3189;SDS011;1606;51.946;10.558;2022-11-20T08:17:02;8.70;;;3.03;;
3189;SDS011;1606;51.946;10.558;2022-11-20T08:19:30;7.43;;;2.60;;
3189;SDS011;1606;51.946;10.558;2022-11-20T08:21:57;6.60;;;2.50;;
3189;SDS011;1606;51.946;10.558;2022-11-20T08:24:25;7.17;;;2.70;;
3189;SDS011;1606;51.946;10.558;2022-11-20T08:26:56;9.37;;;3.37;;
3189;SDS011;1606;51.946;10.558;2022-11-20T08:29:25;9.17;;;3.57;;
3189;SDS011;1606;51.946;10.558;2022-11-20T08:31:53;7.80;;;3.13;;
3189;SDS011;1606;51.946;10.558;2022-11-20T08:34:22;7.07;;;2.90;;
3189;SDS011;1606;51.946;10.558;2022-11-20T08:36:50;8.47;;;2.60;;
3189;SDS011;1606;51.946;10.558;2022-11-20T08:39:18;6.93;;;2.80;;
3189;SDS011;1606;51.946;10.558;2022-11-20T08:41:46;8.67;;;3.20;;
3189;SDS011;1606;51.946;10.558;2022-11-20T08:44:14;7.40;;;2.80;;
3189;SDS011;1606;51.946;10.558;2022-11-20T08:46:42;8.10;;;2.70;;
3189;SDS011;1606;51.946;10.558;2022-11-20T08:49:12;6.70;;;2.90;;
3189;SDS011;1606;51.946;10.558;2022-11-20T08:51:42;9.30;;;3.40;;
3189;SDS011;1606;51.946;10.558;2022-11-20T08:54:10;14.03;;;4.30;;
3189;SDS011;1606;51.946;10.558;2022-11-20T08:56:38;9.47;;;3.97;;
3189;SDS011;1606;51.946;10.558;2022-11-20T08:59:05;11.33;;;4.90;;
3189;SDS011;1606;51.946;10.558;2022-11-20T09:01:53;9.53;;;4.83;;
3189;SDS011;1606;51.946;10.558;2022-11-20T09:04:21;9.47;;;4.50;;
3189;SDS011;1606;51.946;10.558;2022-11-20T09:06:50;12.13;;;6.10;;
3189;SDS011;1606;51.946;10.558;2022-11-20T09:09:18;12.40;;;4.50;;
3189;SDS011;1606;51.946;10.558;2022-11-20T09:11:46;9.23;;;4.23;;
3189;SDS011;1606;51.946;10.558;2022-11-20T09:14:15;8.70;;;3.40;;
3189;SDS011;1606;51.946;10.558;2022-11-20T09:16:44;8.13;;;3.70;;
3189;SDS011;1606;51.946;10.558;2022-11-20T09:19:12;8.47;;;3.40;;
3189;SDS011;1606;51.946;10.558;2022-11-20T09:22:01;7.50;;;3.07;;
3189;SDS011;1606;51.946;10.558;2022-11-20T09:24:29;7.00;;;2.70;;
3189;SDS011;1606;51.946;10.558;2022-11-20T09:26:57;8.40;;;2.87;;
3189;SDS011;1606;51.946;10.558;2022-11-20T09:29:28;7.60;;;2.60;;
3189;SDS011;1606;51.946;10.558;2022-11-20T09:31:56;7.17;;;2.97;;
3189;SDS011;1606;51.946;10.558;2022-11-20T09:34:24;6.90;;;2.40;;
3189;SDS011;1606;51.946;10.558;2022-11-20T09:36:52;7.63;;;2.97;;
3189;SDS011;1606;51.946;10.558;2022-11-20T09:39:21;9.03;;;3.30;;
3189;SDS011;1606;51.946;10.558;2022-11-20T09:44:40;9.23;;;2.40;;
3189;SDS011;1606;51.946;10.558;2022-11-20T09:47:20;8.40;;;2.80;;
3189;SDS011;1606;51.946;10.558;2022-11-20T09:49:58;7.10;;;2.77;;
3189;SDS011;1606;51.946;10.558;2022-11-20T09:52:44;9.87;;;3.27;;
3189;SDS011;1606;51.946;10.558;2022-11-20T09:55:23;6.37;;;2.50;;
3189;SDS011;1606;51.946;10.558;2022-11-20T09:57:52;6.80;;;2.73;;
3189;SDS011;1606;51.946;10.558;2022-11-20T10:00:21;8.53;;;3.40;;
3189;SDS011;1606;51.946;10.558;2022-11-20T10:02:51;6.90;;;3.20;;
3189;SDS011;1606;51.946;10.558;2022-11-20T10:05:25;7.03;;;2.87;;
3189;SDS011;1606;51.946;10.558;2022-11-20T10:08:10;9.27;;;3.37;;
3189;SDS011;1606;51.946;10.558;2022-11-20T10:10:46;7.40;;;2.90;;
3189;SDS011;1606;51.946;10.558;2022-11-20T10:13:25;7.57;;;3.20;;
3189;SDS011;1606;51.946;10.558;2022-11-20T10:16:12;8.30;;;3.87;;
3189;SDS011;1606;51.946;10.558;2022-11-20T10:18:53;8.77;;;3.97;;
3189;SDS011;1606;51.946;10.558;2022-11-20T10:21:30;8.50;;;3.90;;
3189;SDS011;1606;51.946;10.558;2022-11-20T10:24:17;8.53;;;3.60;;
3189;SDS011;1606;51.946;10.558;2022-11-20T10:26:57;8.13;;;3.93;;
3189;SDS011;1606;51.946;10.558;2022-11-20T10:29:32;9.50;;;4.47;;
3189;SDS011;1606;51.946;10.558;2022-11-20T10:32:01;9.83;;;4.00;;
3189;SDS011;1606;51.946;10.558;2022-11-20T10:34:32;9.30;;;4.40;;
3189;SDS011;1606;51.946;10.558;2022-11-20T10:37:09;8.60;;;3.80;;
3189;SDS011;1606;51.946;10.558;2022-11-20T10:39:42;9.20;;;4.50;;
3189;SDS011;1606;51.946;10.558;2022-11-20T10:42:21;9.07;;;4.43;;
3189;SDS011;1606;51.946;10.558;2022-11-20T10:44:58;9.57;;;4.27;;
3189;SDS011;1606;51.946;10.558;2022-11-20T10:47:36;11.17;;;5.10;;
3189;SDS011;1606;51.946;10.558;2022-11-20T10:50:05;10.23;;;4.33;;
3189;SDS011;1606;51.946;10.558;2022-11-20T10:52:46;8.43;;;3.57;;
3189;SDS011;1606;51.946;10.558;2022-11-20T10:55:25;8.20;;;3.53;;
3189;SDS011;1606;51.946;10.558;2022-11-20T10:58:00;8.53;;;3.80;;
3189;SDS011;1606;51.946;10.558;2022-11-20T11:00:33;7.87;;;3.73;;
3189;SDS011;1606;51.946;10.558;2022-11-20T11:03:01;9.00;;;4.63;;
3189;SDS011;1606;51.946;10.558;2022-11-20T11:05:33;7.40;;;3.10;;
3189;SDS011;1606;51.946;10.558;2022-11-20T11:08:07;8.67;;;3.30;;
3189;SDS011;1606;51.946;10.558;2022-11-20T11:10:41;8.30;;;3.70;;
3189;SDS011;1606;51.946;10.558;2022-11-20T11:13:23;12.43;;;4.33;;
3189;SDS011;1606;51.946;10.558;2022-11-20T11:15:52;7.93;;;3.20;;
3189;SDS011;1606;51.946;10.558;2022-11-20T11:18:24;7.10;;;3.10;;
3189;SDS011;1606;51.946;10.558;2022-11-20T11:20:53;7.03;;;3.00;;
3189;SDS011;1606;51.946;10.558;2022-11-20T11:23:26;5.40;;;1.80;;
3189;SDS011;1606;51.946;10.558;2022-11-20T11:26:00;5.67;;;1.90;;
3189;SDS011;1606;51.946;10.558;2022-11-20T11:28:31;5.83;;;2.40;;
3189;SDS011;1606;51.946;10.558;2022-11-20T11:30:59;6.80;;;2.60;;
3189;SDS011;1606;51.946;10.558;2022-11-20T11:33:27;6.00;;;2.30;;
3189;SDS011;1606;51.946;10.558;2022-11-20T11:35:57;6.40;;;2.47;;
3189;SDS011;1606;51.946;10.558;2022-11-20T11:38:30;6.67;;;2.27;;
3189;SDS011;1606;51.946;10.558;2022-11-20T11:41:02;6.67;;;1.90;;
3189;SDS011;1606;51.946;10.558;2022-11-20T11:43:33;5.90;;;2.13;;
3189;SDS011;1606;51.946;10.558;2022-11-20T11:46:27;9.10;;;3.53;;
3189;SDS011;1606;51.946;10.558;2022-11-20T11:48:59;7.60;;;3.20;;
3189;SDS011;1606;51.946;10.558;2022-11-20T11:51:29;6.37;;;2.53;;
3189;SDS011;1606;51.946;10.558;2022-11-20T11:54:02;6.63;;;2.67;;
3189;SDS011;1606;51.946;10.558;2022-11-20T11:56:40;6.70;;;2.37;;
3189;SDS011;1606;51.946;10.558;2022-11-20T11:59:11;5.73;;;2.00;;
3189;SDS011;1606;51.946;10.558;2022-11-20T12:01:43;5.47;;;1.70;;
3189;SDS011;1606;51.946;10.558;2022-11-20T12:04:17;5.40;;;1.73;;
3189;SDS011;1606;51.946;10.558;2022-11-20T12:06:53;7.10;;;3.40;;
3189;SDS011;1606;51.946;10.558;2022-11-20T12:09:49;6.77;;;1.90;;
3189;SDS011;1606;51.946;10.558;2022-11-20T12:12:24;7.70;;;2.20;;
3189;SDS011;1606;51.946;10.558;2022-11-20T12:14:57;5.43;;;1.70;;
3189;SDS011;1606;51.946;10.558;2022-11-20T12:17:25;6.10;;;2.40;;
3189;SDS011;1606;51.946;10.558;2022-11-20T12:19:53;6.87;;;3.10;;
3189;SDS011;1606;51.946;10.558;2022-11-20T12:22:25;7.10;;;2.77;;
3189;SDS011;1606;51.946;10.558;2022-11-20T12:25:02;7.50;;;2.77;;
3189;SDS011;1606;51.946;10.558;2022-11-20T12:27:38;6.57;;;2.43;;
3189;SDS011;1606;51.946;10.558;2022-11-20T12:30:24;7.70;;;3.20;;
3189;SDS011;1606;51.946;10.558;2022-11-20T12:32:59;9.00;;;4.53;;
3189;SDS011;1606;51.946;10.558;2022-11-20T12:35:42;11.30;;;5.33;;
3189;SDS011;1606;51.946;10.558;2022-11-20T12:38:27;9.13;;;5.17;;
3189;SDS011;1606;51.946;10.558;2022-11-20T12:41:15;12.10;;;4.60;;
3189;SDS011;1606;51.946;10.558;2022-11-20T12:44:11;8.47;;;3.90;;
3189;SDS011;1606;51.946;10.558;2022-11-20T12:47:10;8.53;;;4.47;;
3189;SDS011;1606;51.946;10.558;2022-11-20T12:49:45;9.17;;;4.00;;
3189;SDS011;1606;51.946;10.558;2022-11-20T12:52:22;8.90;;;4.33;;
3189;SDS011;1606;51.946;10.558;2022-11-20T12:57:50;8.90;;;4.33;;
3189;SDS011;1606;51.946;10.558;2022-11-20T13:00:21;11.83;;;4.40;;
3189;SDS011;1606;51.946;10.558;2022-11-20T13:05:52;9.70;;;4.50;;
3189;SDS011;1606;51.946;10.558;2022-11-20T13:08:27;10.07;;;5.30;;
3189;SDS011;1606;51.946;10.558;2022-11-20T13:11:01;10.23;;;5.30;;
3189;SDS011;1606;51.946;10.558;2022-11-20T13:13:35;9.23;;;5.00;;
3189;SDS011;1606;51.946;10.558;2022-11-20T13:16:13;11.03;;;5.17;;
3189;SDS011;1606;51.946;10.558;2022-11-20T13:18:45;13.80;;;5.00;;
3189;SDS011;1606;51.946;10.558;2022-11-20T13:21:14;11.83;;;5.50;;
3189;SDS011;1606;51.946;10.558;2022-11-20T13:23:44;10.30;;;4.27;;
3189;SDS011;1606;51.946;10.558;2022-11-20T13:26:17;11.13;;;5.47;;
3189;SDS011;1606;51.946;10.558;2022-11-20T13:28:47;9.60;;;4.77;;
3189;SDS011;1606;51.946;10.558;2022-11-20T13:31:32;9.57;;;4.10;;
3189;SDS011;1606;51.946;10.558;2022-11-20T13:34:04;11.30;;;4.97;;
3189;SDS011;1606;51.946;10.558;2022-11-20T13:36:33;11.47;;;5.70;;
3189;SDS011;1606;51.946;10.558;2022-11-20T13:39:02;12.27;;;6.23;;
3189;SDS011;1606;51.946;10.558;2022-11-20T13:41:31;12.57;;;6.47;;
3189;SDS011;1606;51.946;10.558;2022-11-20T13:44:06;9.40;;;4.97;;
3189;SDS011;1606;51.946;10.558;2022-11-20T13:46:41;14.13;;;7.37;;
3189;SDS011;1606;51.946;10.558;2022-11-20T13:49:18;14.93;;;6.10;;
3189;SDS011;1606;51.946;10.558;2022-11-20T13:51:51;12.97;;;7.97;;
3189;SDS011;1606;51.946;10.558;2022-11-20T13:54:29;14.43;;;7.63;;
3189;SDS011;1606;51.946;10.558;2022-11-20T13:57:39;11.47;;;5.40;;
3189;SDS011;1606;51.946;10.558;2022-11-20T14:00:17;13.00;;;6.30;;
3189;SDS011;1606;51.946;10.558;2022-11-20T14:02:49;13.53;;;7.00;;
3189;SDS011;1606;51.946;10.558;2022-11-20T14:05:28;11.77;;;6.20;;
3189;SDS011;1606;51.946;10.558;2022-11-20T14:07:59;11.10;;;5.63;;
3189;SDS011;1606;51.946;10.558;2022-11-20T14:10:31;10.77;;;6.20;;
3189;SDS011;1606;51.946;10.558;2022-11-20T14:13:09;10.97;;;5.23;;
3189;SDS011;1606;51.946;10.558;2022-11-20T14:15:38;9.17;;;3.83;;
3189;SDS011;1606;51.946;10.558;2022-11-20T14:18:11;10.17;;;5.20;;
3189;SDS011;1606;51.946;10.558;2022-11-20T14:20:42;9.03;;;4.20;;
3189;SDS011;1606;51.946;10.558;2022-11-20T14:23:10;10.70;;;4.93;;
3189;SDS011;1606;51.946;10.558;2022-11-20T14:25:41;8.70;;;4.23;;
3189;SDS011;1606;51.946;10.558;2022-11-20T14:28:10;9.13;;;3.83;;
3189;SDS011;1606;51.946;10.558;2022-11-20T14:30:52;8.83;;;3.77;;
3189;SDS011;1606;51.946;10.558;2022-11-20T14:33:21;8.80;;;3.73;;
3189;SDS011;1606;51.946;10.558;2022-11-20T14:35:53;9.20;;;3.90;;
3189;SDS011;1606;51.946;10.558;2022-11-20T14:38:23;8.50;;;3.90;;
3189;SDS011;1606;51.946;10.558;2022-11-20T14:40:53;11.13;;;4.00;;
3189;SDS011;1606;51.946;10.558;2022-11-20T14:43:22;9.43;;;4.10;;
3189;SDS011;1606;51.946;10.558;2022-11-20T14:45:57;9.33;;;4.20;;
3189;SDS011;1606;51.946;10.558;2022-11-20T14:48:29;10.97;;;4.67;;
3189;SDS011;1606;51.946;10.558;2022-11-20T14:51:01;9.00;;;3.63;;
3189;SDS011;1606;51.946;10.558;2022-11-20T14:53:29;7.93;;;3.60;;
3189;SDS011;1606;51.946;10.558;2022-11-20T14:55:57;9.07;;;3.10;;
3189;SDS011;1606;51.946;10.558;2022-11-20T14:58:27;8.20;;;3.87;;
3189;SDS011;1606;51.946;10.558;2022-11-20T15:00:57;7.30;;;3.13;;
3189;SDS011;1606;51.946;10.558;2022-11-20T15:03:33;9.17;;;3.77;;
3189;SDS011;1606;51.946;10.558;2022-11-20T15:06:04;9.17;;;3.87;;
3189;SDS011;1606;51.946;10.558;2022-11-20T15:08:33;8.50;;;3.93;;
3189;SDS011;1606;51.946;10.558;2022-11-20T15:11:02;7.80;;;3.60;;
3189;SDS011;1606;51.946;10.558;2022-11-20T15:13:31;8.23;;;3.47;;
3189;SDS011;1606;51.946;10.558;2022-11-20T15:16:01;8.50;;;3.70;;
3189;SDS011;1606;51.946;10.558;2022-11-20T15:18:31;12.20;;;4.13;;
3189;SDS011;1606;51.946;10.558;2022-11-20T15:21:06;8.60;;;4.23;;
3189;SDS011;1606;51.946;10.558;2022-11-20T15:23:38;9.40;;;4.90;;
3189;SDS011;1606;51.946;10.558;2022-11-20T15:26:06;9.50;;;4.70;;
3189;SDS011;1606;51.946;10.558;2022-11-20T15:28:35;11.10;;;5.57;;
3189;SDS011;1606;51.946;10.558;2022-11-20T15:31:06;9.17;;;4.33;;
3189;SDS011;1606;51.946;10.558;2022-11-20T15:33:38;9.20;;;3.73;;